Harrisburg, PA (17123)

8:59 AM EDT on October 25, 2014 (GMT -0400)
Bellevue Park | Change Station
CLOSE
Current Station
Personal Weather Station
Location: Harrisburg, PA
Elevation: 498 ft
Nearby Weather Stations

Elev 498 ft 40.27 °N, 76.85 °W | Updated 8 seconds ago

Clear
Clear
49.9 °F
Feels Like 50 °F
N
0.0
Wind Variable Wind from ESE
Gusts 2.0 mph

Today
High -- | Low -- °F
--% Chance of Precip.
Yesterday
High -- | Low -- °F
Precip. -- in
7:29 AM 6:13 PM
Waxing Crescent, 3% visible
Pressure 29.93 in
Visibility 10.0 miles
Clouds Clear
Windchill 50 °F
Dew Point 42 °F
Humidity 74%
Rainfall 0.00 in
Snow Depth Not available.
UV 0 out of 12
Pollen 1.30 out of 12
Ozone Good
PM2.5 Moderate
Flu Activity Sporadic
METAR KMDT 251156Z 00000KT 10SM CLR 06/04 A2992 RMK AO2 SLP134 T00610044 10106 20050 50000

More Conditions Fewer Conditions

Pressure 29.93 in
Visibility 10.0 miles
Clouds Clear
Windchill 50 °F
Dew Point 42 °F
Humidity 74%
Rainfall 0.00 in
Snow Depth Not available.
UV 0 out of 12
Pollen 1.30 out of 12
Ozone Good
PM2.5 Moderate
Flu Activity Sporadic
METAR KMDT 251156Z 00000KT 10SM CLR 06/04 A2992 RMK AO2 SLP134 T00610044 10106 20050 50000

More Conditions Fewer Conditions

10-Day Weather Forecast

Almanac

Astronomy

Oct. 25, 2014 Rise Set
Actual Time 7:29 AM EDT 6:13 PM EDT
Civil Twilight 7:01 AM EDT 6:41 PM EDT
Nautical Twilight 6:29 AM EDT 7:13 PM EDT
Astronomical Twilight 5:57 AM EDT 7:44 PM EDT
Moon 9:05 AM EDT 7:34 PM EDT
Length of Visible Light 11h 40m
Length of Day
10h 44m
Tomorrow will be 2m 27s shorter.
Waxing Crescent, 3% of the Moon is Illuminated
Today
Waxing Crescent
Oct 30
First Quarter
Nov 6
Full
Nov 14
Last Quarter
Nov 22
New

Today's Extremes

State Highs State Lows

Community

WunderPhotos

Upload Photos

1,764,821 photos uploaded!

Nearby

Air Quality

  Air Quality AQ Index Pollutant
Yesterday Good
PM2.5
Yesterday Good
OZONE
Current Moderate
PM2.5
Current Good
OZONE
Saturday Moderate
PM2.5
Sunday Good
PM2.5
Monday Moderate
PM2.5
Tuesday Moderate
PM2.5

Snow Depth

Station Depth Elevation
No new snow has been reported.

Earthquake Activity

City Distance Mag. Time & Date
No recent earthquake activity has been reported nearby.
Minimum magnitude displayed is 2.5.

Coastal Water Temperatures

Place Temperature
No Stations Reporting

Nearby Weather Stations